createdAt,value
2023-03-28T00:01:08.520Z,99881.94
2023-03-28T00:03:41.636Z,99855.63
2023-03-28T00:06:12.074Z,99894.91
2023-03-28T00:08:40.294Z,99912.34
2023-03-28T00:11:20.179Z,99966.22
2023-03-28T00:13:48.669Z,99978.72
2023-03-28T00:16:16.762Z,100012.16
2023-03-28T00:18:43.603Z,100028.81
2023-03-28T00:21:25.527Z,100093.16
2023-03-28T00:23:54.060Z,100088.88
2023-03-28T00:26:22.545Z,100016.44
2023-03-28T00:28:49.180Z,100070.72
2023-03-28T00:31:15.965Z,100049.66
2023-03-28T00:33:42.554Z,100067.19
2023-03-28T00:36:10.550Z,100001.78
2023-03-28T00:38:38.820Z,100137.22
2023-03-28T00:41:06.045Z,100149.44
2023-03-28T00:43:44.298Z,100164.91
2023-03-28T00:46:42.081Z,100181.44
2023-03-28T00:49:21.394Z,100209.09
2023-03-28T00:51:53.866Z,100154.34
2023-03-28T00:54:21.530Z,100209.63
2023-03-28T00:56:52.404Z,100221.38
2023-03-28T00:59:23.842Z,100191.59
2023-03-28T01:01:50.907Z,100269.31
2023-03-28T01:04:20.644Z,100277.00
2023-03-28T01:06:51.196Z,100293.66
2023-03-28T01:09:19.062Z,100341.84
2023-03-28T01:11:46.318Z,100352.03
2023-03-28T01:14:17.924Z,100313.63
2023-03-28T01:16:46.195Z,100355.22
2023-03-28T01:19:22.035Z,100362.47
2023-03-28T01:22:22.616Z,100371.03
2023-03-28T01:25:10.851Z,100326.72
2023-03-28T01:27:44.248Z,100331.19
2023-03-28T01:30:48.525Z,100343.00
2023-03-28T01:33:40.659Z,100376.03
2023-03-28T01:36:33.952Z,100420.94
2023-03-28T01:39:05.184Z,100413.69
2023-03-28T01:41:51.955Z,100418.84
2023-03-28T01:44:30.506Z,100420.47
2023-03-28T01:47:20.294Z,100418.06
2023-03-28T01:50:07.481Z,100347.59
2023-03-28T01:52:46.342Z,100437.06
2023-03-28T01:55:18.759Z,100383.25
2023-03-28T01:57:53.150Z,100395.53
2023-03-28T02:00:36.473Z,100452.69
2023-03-28T02:03:18.928Z,100411.31
2023-03-28T02:05:48.349Z,100457.94
2023-03-28T02:08:17.614Z,100502.03
2023-03-28T02:10:46.599Z,100487.50
2023-03-28T02:13:21.199Z,100464.47
2023-03-28T02:15:54.351Z,100519.22
2023-03-28T02:18:34.305Z,100493.97
2023-03-28T02:21:14.187Z,100449.88
2023-03-28T02:23:45.522Z,100525.22
2023-03-28T02:26:12.562Z,100540.06
2023-03-28T02:28:41.631Z,100474.09
2023-03-28T02:31:08.463Z,100477.59
2023-03-28T02:33:40.121Z,100497.97
2023-03-28T02:36:16.930Z,100508.75
2023-03-28T02:38:43.476Z,100518.44
2023-03-28T02:41:24.043Z,100528.66
2023-03-28T02:43:53.353Z,100536.94
2023-03-28T02:46:46.496Z,100530.91
2023-03-28T02:49:29.963Z,100520.38
2023-03-28T02:52:14.994Z,100494.81
2023-03-28T02:55:03.382Z,100526.47
2023-03-28T02:57:56.019Z,100485.81
2023-03-28T03:00:22.826Z,100432.16
2023-03-28T03:02:54.264Z,100458.31
2023-03-28T03:05:22.422Z,100536.38
2023-03-28T03:07:50.194Z,100563.56
2023-03-28T03:10:17.571Z,100583.97
2023-03-28T03:12:44.626Z,100562.81
2023-03-28T03:15:11.987Z,100573.16
2023-03-28T03:17:38.812Z,100618.38
2023-03-28T03:20:07.579Z,100569.16
2023-03-28T03:22:34.756Z,100589.50
2023-03-28T03:25:08.314Z,100591.47
2023-03-28T03:27:37.284Z,100589.44
2023-03-28T03:30:04.885Z,100530.66
2023-03-28T03:32:31.889Z,100564.25
2023-03-28T03:34:58.757Z,100579.47
2023-03-28T03:37:25.338Z,100513.00
2023-03-28T03:39:51.855Z,100577.81
2023-03-28T03:42:18.467Z,100572.03
2023-03-28T03:44:45.034Z,100567.50
2023-03-28T03:47:11.750Z,100511.09
2023-03-28T03:49:38.382Z,100552.41
2023-03-28T03:52:05.204Z,100557.94
2023-03-28T03:54:31.750Z,100533.94
2023-03-28T03:56:58.405Z,100511.19
2023-03-28T03:59:25.079Z,100525.97
2023-03-28T04:01:51.851Z,100515.59
2023-03-28T04:04:18.782Z,100516.13
2023-03-28T04:06:45.540Z,100507.25
2023-03-28T04:09:12.224Z,100413.13
2023-03-28T04:11:38.816Z,100454.59
2023-03-28T04:14:05.630Z,100508.75
2023-03-28T04:16:40.468Z,100482.41
2023-03-28T04:19:07.821Z,100519.50
2023-03-28T04:21:35.440Z,100527.41
2023-03-28T04:24:02.100Z,100535.19
2023-03-28T04:26:29.828Z,100535.19
2023-03-28T04:28:57.384Z,100532.84
2023-03-28T04:31:28.984Z,100520.81
2023-03-28T04:33:56.041Z,100512.63
2023-03-28T04:36:25.940Z,100485.09
2023-03-28T04:38:52.784Z,100435.66
2023-03-28T04:41:19.328Z,100442.38
2023-03-28T04:43:45.983Z,100476.75
2023-03-28T04:46:12.669Z,100454.22
2023-03-28T04:48:39.298Z,100448.31
2023-03-28T04:51:06.287Z,100485.03
2023-03-28T04:53:33.014Z,100449.50
2023-03-28T04:56:00.308Z,100398.44
2023-03-28T04:58:27.130Z,100492.66
2023-03-28T05:00:54.122Z,100412.91
2023-03-28T05:03:23.292Z,100459.09
2023-03-28T05:05:53.123Z,100424.00
2023-03-28T05:08:23.190Z,100452.38
2023-03-28T05:10:50.702Z,100405.72
2023-03-28T05:13:18.539Z,100434.28
2023-03-28T05:15:47.729Z,100390.25
2023-03-28T05:18:15.883Z,100431.97
2023-03-28T05:20:42.751Z,100402.38
2023-03-28T05:23:09.750Z,100401.09
2023-03-28T05:25:37.336Z,100381.28
2023-03-28T05:28:04.659Z,100428.88
2023-03-28T05:30:31.625Z,100436.69
2023-03-28T05:32:58.676Z,100442.09
2023-03-28T05:35:25.448Z,100370.34
2023-03-28T05:37:52.184Z,100416.09
2023-03-28T05:40:19.062Z,100410.38
2023-03-28T05:42:45.957Z,100390.47
2023-03-28T05:45:12.884Z,100387.81
2023-03-28T05:47:39.761Z,100433.78
2023-03-28T05:50:07.527Z,100437.94
2023-03-28T05:52:34.153Z,100456.97
2023-03-28T05:55:00.750Z,100465.91
2023-03-28T05:57:27.383Z,100430.78
2023-03-28T05:59:54.103Z,100497.91
2023-03-28T06:02:22.311Z,100488.88
2023-03-28T06:04:49.028Z,100533.44
2023-03-28T06:07:19.740Z,100544.16
2023-03-28T06:09:49.861Z,100551.00
2023-03-28T06:12:16.465Z,100511.03
2023-03-28T06:14:43.550Z,100487.53
2023-03-28T06:17:10.335Z,100551.97
2023-03-28T06:19:37.220Z,100601.56
2023-03-28T06:22:04.181Z,100585.69
2023-03-28T06:24:31.596Z,100585.97
2023-03-28T06:26:58.692Z,100587.41
2023-03-28T06:29:25.732Z,100599.94
2023-03-28T06:31:52.465Z,100569.38
2023-03-28T06:34:19.142Z,100631.03
2023-03-28T06:36:45.825Z,100650.16
2023-03-28T06:39:13.105Z,100623.75
2023-03-28T06:41:39.808Z,100620.13
2023-03-28T06:44:06.563Z,100584.34
2023-03-28T06:46:33.311Z,100662.13
2023-03-28T06:48:59.863Z,100622.03
2023-03-28T06:51:26.505Z,100589.34
2023-03-28T06:53:53.367Z,100646.44
2023-03-28T06:56:19.940Z,100659.13
2023-03-28T06:58:46.551Z,100644.69
2023-03-28T07:01:13.192Z,100683.31
2023-03-28T07:03:39.843Z,100685.56
2023-03-28T07:06:08.963Z,100730.91
2023-03-28T07:08:35.752Z,100825.19
2023-03-28T07:11:02.846Z,100763.50
2023-03-28T07:13:29.685Z,100902.72
2023-03-28T07:16:08.816Z,100869.88
2023-03-28T07:18:35.471Z,100931.78
2023-03-28T07:21:10.675Z,101001.94
2023-03-28T07:23:39.489Z,101010.81
2023-03-28T07:26:07.917Z,101063.44
2023-03-28T07:28:35.101Z,101099.88
2023-03-28T07:31:02.635Z,101120.72
2023-03-28T07:33:36.207Z,101173.72
2023-03-28T07:36:15.918Z,101177.88
2023-03-28T07:38:42.838Z,101283.31
2023-03-28T07:41:09.768Z,101344.28
2023-03-28T07:43:38.000Z,101380.25
2023-03-28T07:46:08.299Z,101416.59
2023-03-28T07:48:36.711Z,101367.84
2023-03-28T07:51:06.523Z,101402.13
2023-03-28T07:53:34.504Z,101413.78
2023-03-28T07:56:01.690Z,101458.41
2023-03-28T07:58:28.389Z,101335.41
2023-03-28T08:00:55.156Z,101388.78
2023-03-28T08:03:23.959Z,101443.88
2023-03-28T08:05:52.291Z,101557.66
2023-03-28T08:08:21.752Z,101581.59
2023-03-28T08:10:51.880Z,101614.81
2023-03-28T08:13:21.263Z,101570.66
2023-03-28T08:15:54.992Z,101767.38
2023-03-28T08:18:22.748Z,101882.06
2023-03-28T08:20:49.725Z,101857.00
2023-03-28T08:23:16.637Z,101862.69
2023-03-28T08:25:43.688Z,101921.03
2023-03-28T08:28:11.482Z,101930.00
2023-03-28T08:30:38.183Z,101952.94
2023-03-28T08:33:05.057Z,101957.56
2023-03-28T08:35:32.689Z,102007.47
2023-03-28T08:37:59.985Z,102000.44
2023-03-28T08:40:29.062Z,102056.94
2023-03-28T08:43:33.336Z,102057.41
2023-03-28T08:46:01.434Z,102087.97
2023-03-28T08:48:38.823Z,102134.09
2023-03-28T08:51:31.656Z,102121.47
2023-03-28T08:54:52.716Z,102199.44
2023-03-28T08:57:25.233Z,102264.41
2023-03-28T09:00:08.887Z,102279.94
2023-03-28T09:02:36.183Z,102317.41
2023-03-28T09:07:54.866Z,102319.72
2023-03-28T09:10:41.853Z,102304.50
2023-03-28T09:13:37.813Z,102299.03
2023-03-28T09:16:17.289Z,102312.13
2023-03-28T09:19:20.550Z,102239.94
2023-03-28T09:22:24.746Z,102309.38
2023-03-28T09:25:03.794Z,102297.25
2023-03-28T09:27:34.661Z,102320.72
2023-03-28T09:30:22.319Z,102311.75
2023-03-28T09:32:53.170Z,102289.84
2023-03-28T09:35:22.341Z,102284.25
2023-03-28T09:37:52.178Z,102312.53
2023-03-28T09:40:30.359Z,102325.41
2023-03-28T09:43:15.923Z,102316.06
2023-03-28T09:45:45.414Z,102313.88
2023-03-28T09:48:19.918Z,102290.28
2023-03-28T09:50:47.250Z,102311.81
2023-03-28T09:53:23.195Z,102302.16
2023-03-28T09:56:03.525Z,102269.13
2023-03-28T09:58:48.319Z,102318.66
2023-03-28T10:01:45.797Z,102267.75
2023-03-28T10:04:15.466Z,102302.88
2023-03-28T10:06:43.633Z,102326.25
2023-03-28T10:09:18.379Z,102327.31
2023-03-28T10:11:49.512Z,102222.91
2023-03-28T10:14:40.466Z,102322.56
2023-03-28T10:17:14.490Z,102312.78
2023-03-28T10:19:44.790Z,102271.53
2023-03-28T10:22:15.642Z,102323.72
2023-03-28T10:24:45.351Z,102278.59
2023-03-28T10:27:24.054Z,102328.38
2023-03-28T10:29:53.662Z,102328.69
2023-03-28T10:32:29.436Z,102329.78
2023-03-28T10:35:08.276Z,102337.25
2023-03-28T10:37:35.504Z,102337.41
2023-03-28T10:40:07.970Z,102340.78
2023-03-28T10:42:45.767Z,102331.72
2023-03-28T10:45:24.354Z,102350.13
2023-03-28T10:47:54.833Z,102340.84
2023-03-28T10:50:36.519Z,102334.75
2023-03-28T10:53:22.021Z,102332.34
2023-03-28T10:56:14.374Z,102325.56
2023-03-28T10:58:51.489Z,102301.09
2023-03-28T11:01:25.078Z,102334.03
2023-03-28T11:04:11.214Z,102295.44
2023-03-28T11:06:53.348Z,102328.28
2023-03-28T11:09:25.208Z,102311.50
2023-03-28T11:12:07.025Z,102329.84
2023-03-28T11:15:11.557Z,102324.16
2023-03-28T11:18:03.435Z,102309.88
2023-03-28T11:20:40.689Z,102322.56
2023-03-28T11:23:18.825Z,102336.25
2023-03-28T11:26:06.787Z,102332.28
2023-03-28T11:28:41.404Z,102324.44
2023-03-28T11:31:13.709Z,102286.75
2023-03-28T11:34:03.139Z,102328.66
2023-03-28T11:36:53.794Z,102310.50
2023-03-28T11:39:26.664Z,102323.13
2023-03-28T11:41:56.660Z,102266.28
2023-03-28T11:44:30.781Z,102308.56
2023-03-28T11:47:04.722Z,102305.31
2023-03-28T11:49:46.014Z,102310.50
2023-03-28T11:52:28.401Z,102292.50
2023-03-28T11:54:57.730Z,102301.63
2023-03-28T11:57:35.119Z,102297.31
2023-03-28T12:00:36.641Z,102295.19
2023-03-28T12:03:12.463Z,102298.22
2023-03-28T12:06:00.034Z,102308.41
2023-03-28T12:08:57.321Z,102215.16
2023-03-28T12:11:34.906Z,102233.38
2023-03-28T12:14:26.753Z,102252.13
2023-03-28T12:16:55.385Z,102277.88
2023-03-28T12:19:40.096Z,102290.34
2023-03-28T12:22:20.470Z,102292.69
2023-03-28T12:24:52.707Z,102293.75
2023-03-28T12:27:42.374Z,102282.47
2023-03-28T12:30:49.845Z,102304.09
2023-03-28T12:33:26.806Z,102299.59
2023-03-28T12:36:28.771Z,102312.34
2023-03-28T12:39:13.988Z,102302.00
2023-03-28T12:41:41.194Z,102280.75
2023-03-28T12:44:12.231Z,102307.84
2023-03-28T12:46:49.289Z,102309.00
2023-03-28T12:49:46.487Z,102261.28
2023-03-28T12:52:22.488Z,102300.94
2023-03-28T12:55:01.859Z,102307.41
2023-03-28T12:57:40.873Z,102311.81
2023-03-28T13:00:07.847Z,102261.66
2023-03-28T13:02:54.000Z,102280.22
2023-03-28T13:05:29.800Z,102313.13
2023-03-28T13:08:04.570Z,102302.00
2023-03-28T13:11:06.688Z,102262.84
2023-03-28T13:14:04.167Z,102323.44
2023-03-28T13:16:47.782Z,102258.44
2023-03-28T13:19:18.484Z,102320.69
2023-03-28T13:21:50.013Z,102255.63
2023-03-28T13:24:28.773Z,102283.94
2023-03-28T13:27:06.757Z,102272.44
2023-03-28T13:29:58.848Z,102259.69
2023-03-28T13:32:26.206Z,102275.59
2023-03-28T13:34:56.922Z,102269.16
2023-03-28T13:37:26.113Z,102197.53
2023-03-28T13:40:01.946Z,102251.34
2023-03-28T13:42:31.576Z,102219.94
2023-03-28T13:45:03.313Z,102264.28
2023-03-28T13:47:41.707Z,102283.44
2023-03-28T13:50:26.749Z,102261.63
2023-03-28T13:52:53.392Z,102275.59
2023-03-28T13:55:23.443Z,102265.50
2023-03-28T13:57:51.494Z,102255.34
2023-03-28T14:00:22.895Z,102209.31
2023-03-28T14:02:51.909Z,102255.78
2023-03-28T14:05:30.930Z,102246.94
2023-03-28T14:08:22.123Z,102253.63
2023-03-28T14:10:51.663Z,102251.47
2023-03-28T14:13:28.911Z,102224.00
2023-03-28T14:15:56.169Z,102239.66
2023-03-28T14:18:34.631Z,102195.94
2023-03-28T14:21:01.955Z,102194.69
2023-03-28T14:23:32.029Z,102236.31
2023-03-28T14:26:04.822Z,102229.81
2023-03-28T14:28:31.865Z,102223.84
2023-03-28T14:30:59.843Z,102219.63
2023-03-28T14:33:32.180Z,102204.41
2023-03-28T14:36:04.414Z,102211.94
2023-03-28T14:38:36.314Z,102216.50
2023-03-28T14:41:15.160Z,102210.34
2023-03-28T14:43:42.045Z,102196.72
2023-03-28T14:46:10.255Z,102192.25
2023-03-28T14:48:38.290Z,102133.59
2023-03-28T14:51:06.074Z,102166.25
2023-03-28T14:53:42.859Z,102187.53
2023-03-28T14:56:14.248Z,102172.09
2023-03-28T14:58:44.325Z,102192.03
2023-03-28T15:01:15.959Z,102172.31
2023-03-28T15:03:46.702Z,102166.03
2023-03-28T15:06:18.880Z,102094.53
2023-03-28T15:08:46.101Z,102148.47
2023-03-28T15:11:12.662Z,102173.06
2023-03-28T15:13:41.266Z,102163.09
2023-03-28T15:16:09.251Z,102150.88
2023-03-28T15:18:44.514Z,102142.69
2023-03-28T15:21:11.884Z,102163.50
2023-03-28T15:23:56.357Z,102150.91
2023-03-28T15:26:28.945Z,102151.03
2023-03-28T15:28:57.698Z,102145.22
2023-03-28T15:31:26.049Z,102137.84
2023-03-28T15:33:53.899Z,102137.13
2023-03-28T15:36:32.737Z,102110.91
2023-03-28T15:39:17.329Z,102134.09
2023-03-28T15:41:48.198Z,102106.72
2023-03-28T15:44:34.601Z,102130.09
2023-03-28T15:47:09.840Z,102123.81
2023-03-28T15:49:38.012Z,102116.94
2023-03-28T15:52:20.106Z,102110.56
2023-03-28T15:54:52.408Z,102112.00
2023-03-28T15:57:22.248Z,102108.94
2023-03-28T15:59:54.136Z,102103.31
2023-03-28T16:02:23.549Z,102108.84
2023-03-28T16:05:15.126Z,102109.34
2023-03-28T16:07:46.083Z,102108.19
2023-03-28T16:10:14.715Z,102102.34
2023-03-28T16:12:41.421Z,102016.72
2023-03-28T16:15:09.437Z,102089.81
2023-03-28T16:17:36.394Z,102040.94
2023-03-28T16:20:14.288Z,102026.06
2023-03-28T16:22:40.879Z,102089.91
2023-03-28T16:25:07.942Z,102083.63
2023-03-28T16:27:37.222Z,102009.22
2023-03-28T16:30:07.843Z,102035.66
2023-03-28T16:32:34.514Z,102026.09
2023-03-28T16:35:01.075Z,102072.59
2023-03-28T16:37:27.635Z,102086.56
2023-03-28T16:39:54.255Z,102084.44
2023-03-28T16:42:21.241Z,102063.34
2023-03-28T16:44:47.897Z,102087.03
2023-03-28T16:47:15.791Z,102009.31
2023-03-28T16:49:42.380Z,102082.72
2023-03-28T16:52:08.957Z,102086.06
2023-03-28T16:54:35.938Z,102092.50
2023-03-28T16:57:02.787Z,102093.88
2023-03-28T16:59:29.588Z,101996.03
2023-03-28T17:01:56.302Z,102081.78
2023-03-28T17:04:23.830Z,102088.03
2023-03-28T17:06:50.482Z,102083.94
2023-03-28T17:09:17.102Z,102088.25
2023-03-28T17:11:43.779Z,102089.72
2023-03-28T17:14:10.480Z,102027.59
2023-03-28T17:16:40.512Z,102084.63
2023-03-28T17:19:07.925Z,102072.31
2023-03-28T17:21:35.105Z,102074.06
2023-03-28T17:24:02.289Z,102080.81
2023-03-28T17:26:29.046Z,102070.13
2023-03-28T17:28:58.522Z,102021.84
2023-03-28T17:31:25.870Z,102052.09
2023-03-28T17:33:52.652Z,102089.03
2023-03-28T17:36:25.369Z,102020.00
2023-03-28T17:38:54.073Z,102063.59
2023-03-28T17:41:23.318Z,102076.56
2023-03-28T17:43:50.862Z,102085.44
2023-03-28T17:46:17.771Z,102081.81
2023-03-28T17:48:44.602Z,102060.81
2023-03-28T17:51:12.082Z,102050.22
2023-03-28T17:53:39.899Z,102071.00
2023-03-28T17:56:07.455Z,102078.28
2023-03-28T17:58:34.119Z,102079.44
2023-03-28T18:01:00.941Z,102035.81
2023-03-28T18:03:28.113Z,102059.00
2023-03-28T18:06:00.489Z,102062.94
2023-03-28T18:08:28.960Z,102028.31
2023-03-28T18:11:01.318Z,102082.41
2023-03-28T18:13:30.259Z,102048.09
2023-03-28T18:15:57.830Z,102075.75
2023-03-28T18:18:24.501Z,102024.59
2023-03-28T18:20:51.429Z,102062.75
2023-03-28T18:23:18.256Z,102076.22
2023-03-28T18:25:44.849Z,101958.72
2023-03-28T18:28:11.459Z,102068.59
2023-03-28T18:30:39.463Z,102059.22
2023-03-28T18:33:06.424Z,102033.34
2023-03-28T18:35:33.307Z,102060.03
2023-03-28T18:38:00.203Z,102003.16
2023-03-28T18:40:26.850Z,102058.81
2023-03-28T18:42:53.444Z,102036.16
2023-03-28T18:45:20.157Z,102052.84
2023-03-28T18:47:46.948Z,102044.97
2023-03-28T18:50:15.237Z,102047.09
2023-03-28T18:52:42.937Z,102054.31
2023-03-28T18:55:10.584Z,102047.34
2023-03-28T18:57:38.537Z,102044.94
2023-03-28T19:00:18.748Z,102028.47
2023-03-28T19:02:47.341Z,102008.81
2023-03-28T19:05:18.209Z,101985.94
2023-03-28T19:07:45.386Z,102036.66
2023-03-28T19:10:13.581Z,101970.88
2023-03-28T19:12:41.526Z,102035.47
2023-03-28T19:15:11.592Z,102036.09
2023-03-28T19:17:40.130Z,102028.94
2023-03-28T19:20:12.040Z,102001.72
2023-03-28T19:22:42.715Z,102015.44
2023-03-28T19:25:10.171Z,102017.03
2023-03-28T19:27:37.947Z,102013.03
2023-03-28T19:30:05.796Z,101949.13
2023-03-28T19:32:33.063Z,101966.56
2023-03-28T19:34:59.637Z,101994.41
2023-03-28T19:37:26.190Z,102011.84
2023-03-28T19:39:52.836Z,101995.34
2023-03-28T19:42:20.493Z,101989.66
2023-03-28T19:44:47.221Z,102005.97
2023-03-28T19:47:13.835Z,101984.03
2023-03-28T19:49:40.652Z,101916.69
2023-03-28T19:52:09.982Z,101986.34
2023-03-28T19:54:37.296Z,101960.50
2023-03-28T19:57:07.957Z,101971.47
2023-03-28T19:59:35.028Z,101982.75
2023-03-28T20:02:02.144Z,101979.66
2023-03-28T20:04:29.141Z,101973.44
2023-03-28T20:06:55.917Z,101977.63
2023-03-28T20:09:24.352Z,101975.16
2023-03-28T20:11:51.430Z,101968.94
2023-03-28T20:14:20.343Z,101966.97
2023-03-28T20:16:48.192Z,101966.06
2023-03-28T20:19:14.858Z,101978.78
2023-03-28T20:21:41.574Z,101975.03
2023-03-28T20:24:08.899Z,101974.59
2023-03-28T20:26:35.699Z,101944.44
2023-03-28T20:29:02.527Z,101915.09
2023-03-28T20:31:29.297Z,101923.59
2023-03-28T20:33:56.507Z,101960.88
2023-03-28T20:36:23.678Z,101928.97
2023-03-28T20:38:50.649Z,101859.69
2023-03-28T20:41:18.736Z,101940.06
2023-03-28T20:43:50.372Z,101942.44
2023-03-28T20:46:21.305Z,101912.31
2023-03-28T20:48:52.873Z,101873.78
2023-03-28T20:51:23.322Z,101937.88
2023-03-28T20:53:55.755Z,101924.31
2023-03-28T20:56:23.612Z,101885.22
2023-03-28T20:58:51.045Z,101885.94
2023-03-28T21:01:18.685Z,101918.31
2023-03-28T21:03:50.093Z,101833.06
2023-03-28T21:06:33.619Z,101903.41
2023-03-28T21:09:08.069Z,101901.75
2023-03-28T21:11:36.799Z,101876.94
2023-03-28T21:14:05.858Z,101902.16
2023-03-28T21:16:33.510Z,101905.94
2023-03-28T21:19:01.869Z,101902.31
2023-03-28T21:21:33.417Z,101891.84
2023-03-28T21:24:00.686Z,101884.75
2023-03-28T21:26:27.441Z,101861.34
2023-03-28T21:28:54.018Z,101874.75
2023-03-28T21:31:25.060Z,101886.31
2023-03-28T21:33:53.576Z,101888.47
2023-03-28T21:36:20.782Z,101892.63
2023-03-28T21:38:48.091Z,101888.91
2023-03-28T21:41:15.672Z,101875.63
2023-03-28T21:43:43.146Z,101843.56
2023-03-28T21:46:11.513Z,101874.44
2023-03-28T21:48:38.783Z,101877.34
2023-03-28T21:51:06.078Z,101877.84
2023-03-28T21:53:35.070Z,101660.19
2023-03-28T21:56:02.027Z,101827.41
2023-03-28T21:58:32.360Z,101870.81
2023-03-28T22:01:00.079Z,101821.50
2023-03-28T22:03:27.832Z,101871.97
2023-03-28T22:05:55.353Z,101862.59
2023-03-28T22:08:22.814Z,101868.19
2023-03-28T22:10:52.868Z,101866.66
2023-03-28T22:13:20.923Z,101877.50
2023-03-28T22:15:47.591Z,101808.19
2023-03-28T22:18:15.921Z,101871.66
2023-03-28T22:20:43.942Z,101869.47
2023-03-28T22:23:11.173Z,101719.03
2023-03-28T22:25:38.829Z,101811.63
2023-03-28T22:28:08.509Z,101876.25
2023-03-28T22:30:36.668Z,101850.81
2023-03-28T22:33:04.194Z,101843.59
2023-03-28T22:35:32.443Z,101876.56
2023-03-28T22:38:00.253Z,101872.50
2023-03-28T22:40:27.034Z,101878.53
2023-03-28T22:42:57.166Z,101875.13
2023-03-28T22:45:26.665Z,101837.63
2023-03-28T22:47:54.009Z,101882.75
2023-03-28T22:50:22.211Z,101849.94
2023-03-28T22:52:50.389Z,101854.69
2023-03-28T22:55:17.613Z,101839.72
2023-03-28T22:57:45.319Z,101861.41
2023-03-28T23:00:13.949Z,101850.44
2023-03-28T23:02:41.666Z,101846.72
2023-03-28T23:05:09.912Z,101838.41
2023-03-28T23:07:37.764Z,101829.88
2023-03-28T23:10:10.834Z,101814.34
2023-03-28T23:12:37.622Z,101797.44
2023-03-28T23:15:04.458Z,101742.59
2023-03-28T23:17:31.061Z,101811.72
2023-03-28T23:19:58.600Z,101815.06
2023-03-28T23:22:25.247Z,101795.69
2023-03-28T23:24:51.885Z,101789.97
2023-03-28T23:27:19.721Z,101751.19
2023-03-28T23:29:46.888Z,101722.16
2023-03-28T23:32:13.500Z,101767.78
2023-03-28T23:34:40.492Z,101798.09
2023-03-28T23:37:07.276Z,101749.81
2023-03-28T23:39:33.911Z,101793.75
2023-03-28T23:42:00.505Z,101757.66
2023-03-28T23:44:27.955Z,101734.53
2023-03-28T23:46:56.390Z,101787.41
2023-03-28T23:49:23.440Z,101791.34
2023-03-28T23:51:50.951Z,101788.81
2023-03-28T23:54:18.725Z,101774.72
2023-03-28T23:56:46.234Z,101745.50
2023-03-28T23:59:13.371Z,101747.97
